Gossett, Illinois
Current Conditions -  °F | °C
As of 11:15 PM on Friday 24 Oct 2014 (Local Time) from KCUL Reporting Station
Scattered Clouds Scattered Clouds  
Wind Chill: 50°   Ceiling: Unl
Heat Index: 50°   Visibility: 7mi
Dew Point: 50°   Wind: 3mph
Humidity: 99%   Direction: 180°S
Pressure: 30.04"   Gusts: NA
Location:  37.9739°N, 88.3193°W
Report Text: KCUL 250415Z AUTO 18003KT 7SM SCT047 10/10 A3004 RMK AO2 T01020101
Loading
Personal Weather Stations






























Interactive Weather Map
Tropical Storm Tracking
New forecast layout! Learn more

10-Day Weather Forecast

Advertisements
Track Severe Weather on mobile